Flight Track Log - Related Links

Times and Time Zones

All times are in EDT time to prevent confusion due to time zone crossing. See the SKW5305 flight status page for this flight to view local times or setup timezone preferences in your user account.

Time Position Orientation Groundspeed Altitude Reporting Facility
EDT Latitude Longitude Course Direction KTS MPH feet Rate Location/Type
Tue 10:20:50 PM 45.5931 -122.5922 350° North 145 167 600  Level Seattle Center
Tue 10:21:06 PM 45.5975 -122.6011 306° West 137 158 1,100 2,000 Climbing Seattle Center
Tue 10:21:26 PM 45.6106 -122.6158 322° Northwest 160 184 1,800 2,164 Climbing Seattle Center
Tue 10:22:07 PM 45.6403 -122.6394 331° Northwest 176 203 3,300 2,118 Climbing Seattle Center
Tue 10:23:08 PM 45.6872 -122.6614 342° North 183 211 5,400 2,016 Climbing Seattle Center
Tue 10:24:09 PM 45.7389 -122.6706 353° North 188 216 7,400 1,967 Climbing Seattle Center
Tue 10:25:00 PM 45.9339 -122.6368 352° North  Level FlightAware Approximate
Tue 10:25:10 PM 45.7917 -122.6806 352° North 188 216 9,400  Level Seattle Center
Tue 10:26:00 PM 46.0216 -122.6554 350° North  Level FlightAware Approximate
Tue 10:26:11 PM 45.8464 -122.6897 353° North 194 223 11,100  Level Seattle Center
Tue 10:27:12 PM 45.9078 -122.7011 353° North 204 235 13,200 1,820 Climbing Seattle Center
Tue 10:28:13 PM 45.9644 -122.7128 352° North 205 236 14,800 1,328 Climbing Seattle Center
Tue 10:29:14 PM 46.0225 -122.7236 353° North 210 242 15,900 595 Climbing Seattle Center
Tue 10:30:14 PM 46.0883 -122.7361 352° North 236 272 16,000 50 Climbing Seattle Center
Tue 10:31:15 PM 46.1556 -122.7497 352° North 243 280 16,000  Level Seattle Center
Tue 10:32:16 PM 46.2289 -122.7642 352° North 244 281 16,000  Level Seattle Center
Tue 10:33:17 PM 46.2964 -122.7769 353° North 246 283 16,000 -98 Level Seattle Center
Tue 10:34:18 PM 46.3656 -122.7900 353° North 248 285 15,800 -393 Descending Seattle Center
Tue 10:35:19 PM 46.4392 -122.8028 353° North 262 302 15,200 -689 Descending Seattle Center
Tue 10:36:20 PM 46.5106 -122.8136 354° North 264 304 14,400 -787 Descending Seattle Center
Tue 10:37:21 PM 46.5811 -122.8272 352° North 258 297 13,600 -793 Descending Seattle Center
Tue 10:38:21 PM 46.6497 -122.8392 353° North 251 289 12,800 -793 Descending Seattle Center
Tue 10:39:22 PM 46.7178 -122.8519 353° North 247 284 12,000 -787 Descending Seattle Center
Tue 10:40:23 PM 46.7903 -122.8667 352° North 247 284 11,200 -743 Descending Seattle Center
Tue 10:41:15 PM 46.8483 -122.8792 352° North 243 280 10,600 -643 Descending Seattle Center
Tue 10:42:15 PM 46.9183 -122.8933 352° North 237 273 10,000 -514 Descending Seattle Center
Tue 10:42:25 PM 46.9278 -122.8933 360° North 239 275 10,000 -98 Level Seattle Center
Tue 10:43:16 PM 46.9856 -122.8867 North 252 290 9,900 -98 Descending Seattle Center
Tue 10:43:26 PM 46.9925 -122.8736 52° Northeast 259 298 9,900 98 Level Seattle Center
Tue 10:44:17 PM 47.0367 -122.8172 41° Northeast 256 295 10,000 51 Climbing Seattle Center
Tue 10:45:24 PM 47.0947 -122.7472 39° Northeast 247 284 10,000  Level Seattle Center
Tue 10:46:28 PM 47.1497 -122.6744 42° Northeast 248 285 10,000  Level Seattle Center
Tue 10:47:20 PM 47.1933 -122.6189 41° Northeast 248 285 10,000 -509 Level Seattle Center
Tue 10:48:14 PM 47.2419 -122.5567 41° Northeast 249 287 9,100 -943 Descending Seattle Center
Tue 10:48:30 PM 47.2581 -122.5350 42° Northeast 250 288 8,900 -984 Descending Seattle Center
Tue 10:49:15 PM 47.2944 -122.4922 39° Northeast 246 283 8,100 -885 Descending Seattle Center
Tue 10:49:31 PM 47.3111 -122.4764 33° Northeast 241 277 8,000 -90 Descending Seattle Center
Tue 10:50:22 PM 47.3628 -122.4811 356° North 209 241 8,000 -161 Level Seattle Center
Tue 10:51:23 PM 47.4222 -122.4878 356° North 208 239 7,700 -738 Descending Seattle Center
Tue 10:52:24 PM 47.4833 -122.4836 North 224 258 6,500 -1,241 Descending Seattle Center
Tue 10:53:19 PM 47.5406 -122.4722 North 228 262 5,300 -1,200 Descending Seattle Center
Tue 10:53:34 PM 47.5544 -122.4678 12° North 223 257 5,100 -240 Descending Seattle Center
Tue 10:54:34 PM 47.6125 -122.4542 North 212 244 5,000 -429 Descending Seattle Center
Tue 10:55:26 PM 47.6603 -122.4358 14° North 211 243 4,300 -953 Descending Seattle Center
Tue 10:56:21 PM 47.6756 -122.3550 74° East 226 260 3,300 -943 Descending Seattle Center
Tue 10:56:36 PM 47.6700 -122.3347 112° Southeast 223 257 3,200  Descending Seattle Center
Tue 10:57:37 PM 47.6175 -122.3147 166° South 194 223 3,300 -112 Climbing Seattle Center
Tue 10:58:23 PM 47.5817 -122.3181 184° South 178 205 3,000 -689 Descending Seattle Center
Tue 10:58:38 PM 47.5669 -122.3169 177° South 186 214 2,600 -1,167 Descending Seattle Center
Tue 10:59:35 PM 47.5197 -122.3194 182° South 181 208 1,600 -857 Descending Seattle Center
Tue 11:00:30 PM 47.4842 -122.3194 180° South 137 158 1,000 -576 Descending Seattle Center
Tue 11:01:40 PM 47.4478 -122.3192 180° South 128 147 400 -514 Descending Seattle Center

Login

Don't have an account? Register now (free) for customized features, flight alerts, and more!